sensor_id;sensor_type;location;lat;lon;timestamp;P1;durP1;ratioP1;P2;durP2;ratioP2
75512;SDS011;64090;49.770;18.760;2023-05-07T00:00:33;10.90;;;7.90;;
75512;SDS011;64090;49.770;18.760;2023-05-07T00:03:54;12.00;;;8.60;;
75512;SDS011;64090;49.770;18.760;2023-05-07T00:06:57;10.40;;;7.70;;
75512;SDS011;64090;49.770;18.760;2023-05-07T00:10:00;9.40;;;6.40;;
75512;SDS011;64090;49.770;18.760;2023-05-07T00:13:07;10.30;;;7.50;;
75512;SDS011;64090;49.770;18.760;2023-05-07T00:16:10;10.30;;;7.20;;
75512;SDS011;64090;49.770;18.760;2023-05-07T00:19:13;7.60;;;6.20;;
75512;SDS011;64090;49.770;18.760;2023-05-07T00:22:16;10.90;;;7.20;;
75512;SDS011;64090;49.770;18.760;2023-05-07T00:25:19;10.50;;;7.70;;
75512;SDS011;64090;49.770;18.760;2023-05-07T00:28:22;11.50;;;8.50;;
75512;SDS011;64090;49.770;18.760;2023-05-07T00:31:25;8.50;;;6.20;;
75512;SDS011;64090;49.770;18.760;2023-05-07T00:34:28;11.00;;;7.60;;
75512;SDS011;64090;49.770;18.760;2023-05-07T00:37:31;10.20;;;7.70;;
75512;SDS011;64090;49.770;18.760;2023-05-07T00:40:33;11.90;;;7.90;;
75512;SDS011;64090;49.770;18.760;2023-05-07T00:43:37;7.20;;;4.40;;
75512;SDS011;64090;49.770;18.760;2023-05-07T00:46:40;9.80;;;7.90;;
75512;SDS011;64090;49.770;18.760;2023-05-07T00:49:44;10.10;;;5.60;;
75512;SDS011;64090;49.770;18.760;2023-05-07T00:52:48;10.80;;;8.10;;
75512;SDS011;64090;49.770;18.760;2023-05-07T00:55:51;13.50;;;9.20;;
75512;SDS011;64090;49.770;18.760;2023-05-07T00:58:54;9.70;;;7.60;;
75512;SDS011;64090;49.770;18.760;2023-05-07T01:01:57;12.10;;;9.10;;
75512;SDS011;64090;49.770;18.760;2023-05-07T01:05:01;9.80;;;6.30;;
75512;SDS011;64090;49.770;18.760;2023-05-07T01:08:06;11.40;;;8.00;;
75512;SDS011;64090;49.770;18.760;2023-05-07T01:11:09;14.40;;;10.70;;
75512;SDS011;64090;49.770;18.760;2023-05-07T01:14:13;15.30;;;11.50;;
75512;SDS011;64090;49.770;18.760;2023-05-07T01:17:16;12.40;;;8.00;;
75512;SDS011;64090;49.770;18.760;2023-05-07T01:20:20;12.80;;;9.40;;
75512;SDS011;64090;49.770;18.760;2023-05-07T01:23:23;14.60;;;10.90;;
75512;SDS011;64090;49.770;18.760;2023-05-07T01:26:27;11.30;;;7.60;;
75512;SDS011;64090;49.770;18.760;2023-05-07T01:29:30;13.20;;;8.90;;
75512;SDS011;64090;49.770;18.760;2023-05-07T01:32:35;10.10;;;6.50;;
75512;SDS011;64090;49.770;18.760;2023-05-07T01:35:45;12.40;;;10.00;;
75512;SDS011;64090;49.770;18.760;2023-05-07T01:38:49;8.50;;;6.40;;
75512;SDS011;64090;49.770;18.760;2023-05-07T01:41:53;13.60;;;9.00;;
75512;SDS011;64090;49.770;18.760;2023-05-07T01:44:58;13.50;;;8.20;;
75512;SDS011;64090;49.770;18.760;2023-05-07T01:48:01;10.90;;;8.20;;
75512;SDS011;64090;49.770;18.760;2023-05-07T01:51:05;12.50;;;8.60;;
75512;SDS011;64090;49.770;18.760;2023-05-07T01:54:08;13.10;;;8.70;;
75512;SDS011;64090;49.770;18.760;2023-05-07T01:57:11;9.80;;;7.10;;
75512;SDS011;64090;49.770;18.760;2023-05-07T02:00:14;14.50;;;10.00;;
75512;SDS011;64090;49.770;18.760;2023-05-07T02:03:17;12.90;;;9.50;;
75512;SDS011;64090;49.770;18.760;2023-05-07T02:06:20;13.70;;;9.50;;
75512;SDS011;64090;49.770;18.760;2023-05-07T02:09:23;15.10;;;10.30;;
75512;SDS011;64090;49.770;18.760;2023-05-07T02:12:26;16.00;;;10.30;;
75512;SDS011;64090;49.770;18.760;2023-05-07T02:15:29;14.00;;;10.00;;
75512;SDS011;64090;49.770;18.760;2023-05-07T02:18:31;12.00;;;8.60;;
75512;SDS011;64090;49.770;18.760;2023-05-07T02:21:34;10.40;;;7.70;;
75512;SDS011;64090;49.770;18.760;2023-05-07T02:24:37;14.40;;;10.30;;
75512;SDS011;64090;49.770;18.760;2023-05-07T02:27:40;11.60;;;8.00;;
75512;SDS011;64090;49.770;18.760;2023-05-07T02:30:43;11.50;;;7.00;;
75512;SDS011;64090;49.770;18.760;2023-05-07T02:33:46;11.50;;;8.30;;
75512;SDS011;64090;49.770;18.760;2023-05-07T02:36:49;12.50;;;8.50;;
75512;SDS011;64090;49.770;18.760;2023-05-07T02:39:52;12.90;;;9.10;;
75512;SDS011;64090;49.770;18.760;2023-05-07T02:42:55;10.30;;;7.30;;
75512;SDS011;64090;49.770;18.760;2023-05-07T02:46:04;15.10;;;9.90;;
75512;SDS011;64090;49.770;18.760;2023-05-07T02:49:09;11.80;;;7.70;;
75512;SDS011;64090;49.770;18.760;2023-05-07T02:52:12;13.00;;;10.10;;
75512;SDS011;64090;49.770;18.760;2023-05-07T02:55:15;15.20;;;11.30;;
75512;SDS011;64090;49.770;18.760;2023-05-07T02:58:18;14.30;;;8.40;;
75512;SDS011;64090;49.770;18.760;2023-05-07T03:01:20;10.40;;;7.10;;
75512;SDS011;64090;49.770;18.760;2023-05-07T03:04:23;11.30;;;8.10;;
75512;SDS011;64090;49.770;18.760;2023-05-07T03:07:26;11.80;;;8.80;;
75512;SDS011;64090;49.770;18.760;2023-05-07T03:10:29;15.00;;;11.00;;
75512;SDS011;64090;49.770;18.760;2023-05-07T03:13:32;12.00;;;8.80;;
75512;SDS011;64090;49.770;18.760;2023-05-07T03:16:35;11.90;;;8.10;;
75512;SDS011;64090;49.770;18.760;2023-05-07T03:19:38;12.50;;;9.00;;
75512;SDS011;64090;49.770;18.760;2023-05-07T03:22:41;14.20;;;10.40;;
75512;SDS011;64090;49.770;18.760;2023-05-07T03:25:44;14.50;;;9.50;;
75512;SDS011;64090;49.770;18.760;2023-05-07T03:28:46;16.80;;;12.10;;
75512;SDS011;64090;49.770;18.760;2023-05-07T03:31:49;13.00;;;8.70;;
75512;SDS011;64090;49.770;18.760;2023-05-07T03:34:52;13.40;;;8.60;;
75512;SDS011;64090;49.770;18.760;2023-05-07T03:37:55;16.30;;;10.70;;
75512;SDS011;64090;49.770;18.760;2023-05-07T03:40:58;19.30;;;12.10;;
75512;SDS011;64090;49.770;18.760;2023-05-07T03:44:01;23.20;;;13.80;;
75512;SDS011;64090;49.770;18.760;2023-05-07T03:47:04;15.80;;;11.00;;
75512;SDS011;64090;49.770;18.760;2023-05-07T03:50:07;16.60;;;10.40;;
75512;SDS011;64090;49.770;18.760;2023-05-07T03:53:10;15.10;;;10.10;;
75512;SDS011;64090;49.770;18.760;2023-05-07T03:56:13;15.30;;;9.70;;
75512;SDS011;64090;49.770;18.760;2023-05-07T03:59:16;18.80;;;11.30;;
75512;SDS011;64090;49.770;18.760;2023-05-07T04:02:18;17.40;;;10.80;;
75512;SDS011;64090;49.770;18.760;2023-05-07T04:05:21;17.90;;;10.70;;
75512;SDS011;64090;49.770;18.760;2023-05-07T04:08:24;17.80;;;11.00;;
75512;SDS011;64090;49.770;18.760;2023-05-07T04:11:27;18.70;;;11.80;;
75512;SDS011;64090;49.770;18.760;2023-05-07T04:14:30;17.70;;;11.60;;
75512;SDS011;64090;49.770;18.760;2023-05-07T04:17:34;19.80;;;12.10;;
75512;SDS011;64090;49.770;18.760;2023-05-07T04:20:37;20.90;;;11.70;;
75512;SDS011;64090;49.770;18.760;2023-05-07T04:23:40;17.70;;;11.90;;
75512;SDS011;64090;49.770;18.760;2023-05-07T04:26:43;13.10;;;8.30;;
75512;SDS011;64090;49.770;18.760;2023-05-07T04:29:46;15.30;;;9.10;;
75512;SDS011;64090;49.770;18.760;2023-05-07T04:32:49;23.50;;;14.00;;
75512;SDS011;64090;49.770;18.760;2023-05-07T04:35:52;28.90;;;17.50;;
75512;SDS011;64090;49.770;18.760;2023-05-07T04:38:55;23.90;;;15.40;;
75512;SDS011;64090;49.770;18.760;2023-05-07T04:41:58;28.20;;;17.40;;
75512;SDS011;64090;49.770;18.760;2023-05-07T04:45:01;29.10;;;16.30;;
75512;SDS011;64090;49.770;18.760;2023-05-07T04:48:05;23.20;;;14.00;;
75512;SDS011;64090;49.770;18.760;2023-05-07T04:51:08;27.50;;;17.80;;
75512;SDS011;64090;49.770;18.760;2023-05-07T04:54:11;24.00;;;14.60;;
75512;SDS011;64090;49.770;18.760;2023-05-07T04:57:13;23.20;;;12.90;;
75512;SDS011;64090;49.770;18.760;2023-05-07T05:00:16;30.90;;;17.30;;
75512;SDS011;64090;49.770;18.760;2023-05-07T05:03:21;25.60;;;14.70;;
75512;SDS011;64090;49.770;18.760;2023-05-07T05:06:25;25.80;;;15.20;;
75512;SDS011;64090;49.770;18.760;2023-05-07T05:09:27;22.00;;;14.00;;
75512;SDS011;64090;49.770;18.760;2023-05-07T05:12:30;23.50;;;13.70;;
75512;SDS011;64090;49.770;18.760;2023-05-07T05:15:33;15.20;;;9.80;;
75512;SDS011;64090;49.770;18.760;2023-05-07T05:18:36;20.30;;;13.10;;
75512;SDS011;64090;49.770;18.760;2023-05-07T05:21:39;19.80;;;10.80;;
75512;SDS011;64090;49.770;18.760;2023-05-07T05:24:42;20.10;;;11.40;;
75512;SDS011;64090;49.770;18.760;2023-05-07T05:27:45;19.70;;;10.80;;
75512;SDS011;64090;49.770;18.760;2023-05-07T05:30:48;21.80;;;15.60;;
75512;SDS011;64090;49.770;18.760;2023-05-07T05:33:50;17.30;;;10.70;;
75512;SDS011;64090;49.770;18.760;2023-05-07T05:36:53;22.40;;;14.80;;
75512;SDS011;64090;49.770;18.760;2023-05-07T05:39:56;24.10;;;15.30;;
75512;SDS011;64090;49.770;18.760;2023-05-07T05:42:59;17.70;;;10.60;;
75512;SDS011;64090;49.770;18.760;2023-05-07T05:46:02;20.80;;;12.30;;
75512;SDS011;64090;49.770;18.760;2023-05-07T05:49:07;20.70;;;13.20;;
75512;SDS011;64090;49.770;18.760;2023-05-07T05:52:11;22.80;;;13.70;;
75512;SDS011;64090;49.770;18.760;2023-05-07T05:55:15;22.50;;;12.90;;
75512;SDS011;64090;49.770;18.760;2023-05-07T05:58:18;21.60;;;13.80;;
75512;SDS011;64090;49.770;18.760;2023-05-07T06:01:21;24.90;;;13.60;;
75512;SDS011;64090;49.770;18.760;2023-05-07T06:04:23;22.60;;;14.20;;
75512;SDS011;64090;49.770;18.760;2023-05-07T06:07:26;21.30;;;14.20;;
75512;SDS011;64090;49.770;18.760;2023-05-07T06:10:29;22.20;;;14.70;;
75512;SDS011;64090;49.770;18.760;2023-05-07T06:13:33;20.60;;;14.00;;
75512;SDS011;64090;49.770;18.760;2023-05-07T06:16:35;16.50;;;11.50;;
75512;SDS011;64090;49.770;18.760;2023-05-07T06:19:40;17.50;;;11.90;;
75512;SDS011;64090;49.770;18.760;2023-05-07T06:22:43;16.20;;;11.40;;
75512;SDS011;64090;49.770;18.760;2023-05-07T06:25:48;17.70;;;12.90;;
75512;SDS011;64090;49.770;18.760;2023-05-07T06:28:54;15.50;;;11.70;;
75512;SDS011;64090;49.770;18.760;2023-05-07T06:31:57;16.30;;;11.50;;
75512;SDS011;64090;49.770;18.760;2023-05-07T06:35:09;13.40;;;10.30;;
75512;SDS011;64090;49.770;18.760;2023-05-07T06:38:12;12.10;;;9.20;;
75512;SDS011;64090;49.770;18.760;2023-05-07T06:41:15;12.80;;;9.50;;
75512;SDS011;64090;49.770;18.760;2023-05-07T06:44:17;14.50;;;10.50;;
75512;SDS011;64090;49.770;18.760;2023-05-07T06:47:20;13.30;;;9.80;;
75512;SDS011;64090;49.770;18.760;2023-05-07T06:50:23;12.80;;;10.60;;
75512;SDS011;64090;49.770;18.760;2023-05-07T06:53:26;13.00;;;9.40;;
75512;SDS011;64090;49.770;18.760;2023-05-07T06:56:31;14.10;;;10.30;;
75512;SDS011;64090;49.770;18.760;2023-05-07T06:59:34;13.10;;;11.00;;
75512;SDS011;64090;49.770;18.760;2023-05-07T07:02:37;13.50;;;9.90;;
75512;SDS011;64090;49.770;18.760;2023-05-07T07:05:40;18.50;;;11.80;;
75512;SDS011;64090;49.770;18.760;2023-05-07T07:08:44;20.20;;;13.10;;
75512;SDS011;64090;49.770;18.760;2023-05-07T07:11:47;19.60;;;14.00;;
75512;SDS011;64090;49.770;18.760;2023-05-07T07:14:50;22.50;;;14.90;;
75512;SDS011;64090;49.770;18.760;2023-05-07T07:17:52;21.40;;;14.20;;
75512;SDS011;64090;49.770;18.760;2023-05-07T07:20:55;18.80;;;13.40;;
75512;SDS011;64090;49.770;18.760;2023-05-07T07:23:58;19.00;;;13.00;;
75512;SDS011;64090;49.770;18.760;2023-05-07T07:27:01;21.80;;;14.80;;
75512;SDS011;64090;49.770;18.760;2023-05-07T07:30:04;19.40;;;14.60;;
75512;SDS011;64090;49.770;18.760;2023-05-07T07:33:07;23.00;;;13.70;;
75512;SDS011;64090;49.770;18.760;2023-05-07T07:36:10;21.40;;;12.80;;
75512;SDS011;64090;49.770;18.760;2023-05-07T07:39:13;18.50;;;13.50;;
75512;SDS011;64090;49.770;18.760;2023-05-07T07:42:16;17.60;;;12.50;;
75512;SDS011;64090;49.770;18.760;2023-05-07T07:45:19;20.30;;;14.80;;
75512;SDS011;64090;49.770;18.760;2023-05-07T07:48:22;21.30;;;15.50;;
75512;SDS011;64090;49.770;18.760;2023-05-07T07:51:25;23.90;;;15.80;;
75512;SDS011;64090;49.770;18.760;2023-05-07T07:54:29;23.60;;;15.30;;
75512;SDS011;64090;49.770;18.760;2023-05-07T07:57:32;21.00;;;14.50;;
75512;SDS011;64090;49.770;18.760;2023-05-07T08:00:36;21.30;;;13.40;;
75512;SDS011;64090;49.770;18.760;2023-05-07T08:03:39;17.60;;;13.30;;
75512;SDS011;64090;49.770;18.760;2023-05-07T08:06:41;20.20;;;13.50;;
75512;SDS011;64090;49.770;18.760;2023-05-07T08:09:44;20.40;;;15.50;;
75512;SDS011;64090;49.770;18.760;2023-05-07T08:12:50;16.90;;;11.00;;
75512;SDS011;64090;49.770;18.760;2023-05-07T08:15:54;18.60;;;13.60;;
75512;SDS011;64090;49.770;18.760;2023-05-07T08:18:57;17.00;;;11.60;;
75512;SDS011;64090;49.770;18.760;2023-05-07T08:21:59;17.70;;;12.60;;
75512;SDS011;64090;49.770;18.760;2023-05-07T08:25:02;16.40;;;11.80;;
75512;SDS011;64090;49.770;18.760;2023-05-07T08:28:05;17.50;;;10.90;;
75512;SDS011;64090;49.770;18.760;2023-05-07T08:31:11;17.90;;;12.90;;
75512;SDS011;64090;49.770;18.760;2023-05-07T08:34:14;14.60;;;10.90;;
75512;SDS011;64090;49.770;18.760;2023-05-07T08:37:17;14.90;;;12.50;;
75512;SDS011;64090;49.770;18.760;2023-05-07T08:40:24;15.80;;;10.60;;
75512;SDS011;64090;49.770;18.760;2023-05-07T08:43:28;17.00;;;13.00;;
75512;SDS011;64090;49.770;18.760;2023-05-07T08:46:34;16.40;;;12.40;;
75512;SDS011;64090;49.770;18.760;2023-05-07T08:49:37;18.50;;;13.20;;
75512;SDS011;64090;49.770;18.760;2023-05-07T08:52:40;15.90;;;12.00;;
75512;SDS011;64090;49.770;18.760;2023-05-07T08:55:43;16.60;;;14.10;;
75512;SDS011;64090;49.770;18.760;2023-05-07T08:58:47;16.20;;;11.50;;
75512;SDS011;64090;49.770;18.760;2023-05-07T09:01:50;12.50;;;10.80;;
75512;SDS011;64090;49.770;18.760;2023-05-07T09:04:53;12.00;;;9.30;;
75512;SDS011;64090;49.770;18.760;2023-05-07T09:08:00;11.40;;;9.60;;
75512;SDS011;64090;49.770;18.760;2023-05-07T09:11:05;14.00;;;10.40;;
75512;SDS011;64090;49.770;18.760;2023-05-07T09:14:08;14.10;;;10.60;;
75512;SDS011;64090;49.770;18.760;2023-05-07T09:17:11;11.40;;;9.00;;
75512;SDS011;64090;49.770;18.760;2023-05-07T09:20:14;11.60;;;10.00;;
75512;SDS011;64090;49.770;18.760;2023-05-07T09:23:16;13.90;;;10.20;;
75512;SDS011;64090;49.770;18.760;2023-05-07T09:26:23;13.10;;;11.80;;
75512;SDS011;64090;49.770;18.760;2023-05-07T09:29:27;11.50;;;9.50;;
75512;SDS011;64090;49.770;18.760;2023-05-07T09:32:36;10.60;;;9.50;;
75512;SDS011;64090;49.770;18.760;2023-05-07T09:35:53;10.20;;;8.30;;
75512;SDS011;64090;49.770;18.760;2023-05-07T09:38:56;11.00;;;8.70;;
75512;SDS011;64090;49.770;18.760;2023-05-07T09:42:02;11.30;;;9.00;;
75512;SDS011;64090;49.770;18.760;2023-05-07T09:45:05;10.00;;;7.50;;
75512;SDS011;64090;49.770;18.760;2023-05-07T09:48:08;12.40;;;8.70;;
75512;SDS011;64090;49.770;18.760;2023-05-07T09:51:22;12.70;;;8.70;;
75512;SDS011;64090;49.770;18.760;2023-05-07T09:54:31;15.10;;;10.30;;
75512;SDS011;64090;49.770;18.760;2023-05-07T09:57:35;14.90;;;10.60;;
75512;SDS011;64090;49.770;18.760;2023-05-07T10:00:39;15.30;;;10.50;;
75512;SDS011;64090;49.770;18.760;2023-05-07T10:03:43;18.40;;;12.30;;
75512;SDS011;64090;49.770;18.760;2023-05-07T10:06:48;16.20;;;10.10;;
75512;SDS011;64090;49.770;18.760;2023-05-07T10:09:51;14.70;;;10.00;;
75512;SDS011;64090;49.770;18.760;2023-05-07T10:12:55;12.90;;;9.50;;
75512;SDS011;64090;49.770;18.760;2023-05-07T10:15:58;19.00;;;11.60;;
75512;SDS011;64090;49.770;18.760;2023-05-07T10:19:02;19.60;;;12.20;;
75512;SDS011;64090;49.770;18.760;2023-05-07T10:22:08;17.70;;;11.30;;
75512;SDS011;64090;49.770;18.760;2023-05-07T10:25:20;18.60;;;13.00;;
75512;SDS011;64090;49.770;18.760;2023-05-07T10:28:31;18.80;;;12.40;;
75512;SDS011;64090;49.770;18.760;2023-05-07T10:34:58;16.00;;;11.00;;
75512;SDS011;64090;49.770;18.760;2023-05-07T10:38:05;14.70;;;12.80;;
75512;SDS011;64090;49.770;18.760;2023-05-07T10:45:45;20.40;;;13.10;;
75512;SDS011;64090;49.770;18.760;2023-05-07T10:54:33;19.90;;;14.70;;
75512;SDS011;64090;49.770;18.760;2023-05-07T11:11:50;13.80;;;10.30;;
75512;SDS011;64090;49.770;18.760;2023-05-07T11:40:12;10.50;;;9.30;;
75512;SDS011;64090;49.770;18.760;2023-05-07T11:52:50;7.70;;;6.80;;
75512;SDS011;64090;49.770;18.760;2023-05-07T11:57:30;9.40;;;8.00;;
75512;SDS011;64090;49.770;18.760;2023-05-07T12:15:18;12.70;;;10.60;;
75512;SDS011;64090;49.770;18.760;2023-05-07T12:36:35;10.30;;;9.10;;
75512;SDS011;64090;49.770;18.760;2023-05-07T13:26:51;9.70;;;8.60;;
75512;SDS011;64090;49.770;18.760;2023-05-07T14:09:26;14.50;;;9.70;;
75512;SDS011;64090;49.770;18.760;2023-05-07T19:54:47;10.90;;;7.30;;
75512;SDS011;64090;49.770;18.760;2023-05-07T21:02:58;17.30;;;12.60;;
75512;SDS011;64090;49.770;18.760;2023-05-07T22:05:30;14.30;;;10.00;;
75512;SDS011;64090;49.770;18.760;2023-05-07T22:56:04;9.30;;;6.90;;
